This is the latest recevied weather packets stored in our database for station/object JH1LWU-13. If no packets are shown the sender has not sent any weather packets the latest 10 day(s).
| Time | Temp. | Humidity | Pressure | Rain* | Wind** | Luminosity | Snow |
|---|---|---|---|---|---|---|---|
| 1787618667 | 33.89° C | 53% | 1007 hPa | - | - | - | - |
| 1787616866 | 33.33° C | 53% | 1009 hPa | - | - | - | - |
| 1787615065 | 33.89° C | 51% | 1008 hPa | - | - | - | - |
| 1787613264 | 33.33° C | 51% | 1009 hPa | - | - | - | - |
| 1787611463 | 32.22° C | 54% | 1008 hPa | - | - | - | - |
| 1787609662 | 30.56° C | 58% | 1008 hPa | - | - | - | - |
| 1787607861 | 30° C | 60% | 1010 hPa | - | - | - | - |
| 1787606060 | 28.89° C | 65% | 1010 hPa | - | - | - | - |
| 1787604259 | 27.22° C | 69% | 1009 hPa | - | - | - | - |
| 1787602458 | 27.22° C | 71% | 1008 hPa | - | - | - | - |
| 1787600657 | 27.22° C | 71% | 1007 hPa | - | - | - | - |
| 1787598856 | 27.22° C | 71% | 1008 hPa | - | - | - | - |
| 1787597055 | 27.22° C | 73% | 1008 hPa | - | - | - | - |
| 1787595254 | 26.67° C | 73% | 1008 hPa | - | - | - | - |
| 1787593453 | 27.22° C | 71% | 1010 hPa | - | - | - | - |
| 1787591652 | 27.78° C | 70% | 1007 hPa | - | - | - | - |
| 1787589851 | 27.22° C | 71% | 1008 hPa | - | - | - | - |
| 1787588050 | 27.22° C | 70% | 1009 hPa | - | - | - | - |
| 1787586249 | 28.33° C | 68% | 1008 hPa | - | - | - | - |
| 1787584448 | 28.33° C | 67% | 1011 hPa | - | - | - | - |
| 1787582647 | 28.89° C | 69% | 1010 hPa | - | - | - | - |
| 1787580846 | 28.33° C | 69% | 1008 hPa | - | - | - | - |
| 1787579045 | 31.11° C | 61% | 1010 hPa | - | - | - | - |
| 1787577244 | 31.11° C | 60% | 1010 hPa | - | - | - | - |
| 1787575443 | 27.22° C | 72% | 1009 hPa | - | - | - | - |
* Rain since midnight (hover to see other rain measurements)
** Current wind speed in m/s (hover to see current wind gust speed)